NWS Home NWS Lubbock West Texas Mesonet Central Sector Latest Conditions as of 0851 AM, Sat May 27, 2017

Latest   N   C   S   Daily Sum   3hrΔ   24hrΔ   Soil Data 
Site Map   24hr Precip   72hr Precip   Google Plot


Station Time of Last Temp Dew Pt. RH Wind Direction Wind Speed Wind Gust Max Wind Max Temp Min Temp Max RH Min RH Altimeter 1HR Rain Today's Rain Solar Rad Red Flag
Abernathy 5ENE  08:45 AM 72 31 22% W1215 18 mph 301° @ 0605 AM 72 58 43 22 29.92" 0 0.00 359  
Aiken 3WSW  08:45 AM 73 32 22% W1416 21 mph 257° @ 0538 AM 73 58 42 22 29.92" 0 0.00 395  
Amherst 1NE  08:45 AM 73 24 16% W1215 20 mph 236° @ 0330 AM 73 60 32 16 29.94" 0 0.00 374  
Anton 6SSW  08:45 AM 73 30 21% W1015 22 mph 256° @ 0555 AM 73 60 33 21 29.93" 0 0.00 363  
Aspermont 3NE  08:45 AM 80 68 68% SW1317 18 mph 207° @ 0535 AM 80 70 75 44 29.82" 0 0.00 275  
Bootleg 11WNW  08:45 AM 73 26 17% W1516 21 mph 247° @ 0405 AM 73 53 42 17 29.98" 0 0.00 284  
Brownfield 2S  08:45 AM 74 37 26% W810 19 mph 221° @ 0410 AM 74 64 54 24 29.94" 0 0.00 351  
Caprock Canyons State Park  08:45 AM 75 30 18% W1318 31 mph 263° @ 0530 AM 80 61 66 15 29.85" 0 0.00 314 3
Childress 2NNE  08:45 AM 75 40 29% SW1317 23 mph 235° @ 0755 AM 75 62 85 28 29.79" 0 0.00 400  
Clarendon 2WSW  08:45 AM 75 34 22% W1015 19 mph 150° @ 0135 AM 75 55 85 22 29.84" 0 0.00 386  
Claude 12SW  08:45 AM 75 27 17% W1114 29 mph 277° @ 0639 AM 75 66 59 17 29.88" 0 0.00 59  
Crowell 1E  08:45 AM 80 56 44% SW1215 19 mph 235° @ 0842 AM 80 67 90 44 29.79" 0 0.00 381  
Denver City 7WNW  08:45 AM 72 31 23% N58 16 mph 237° @ 0305 AM 75 60 33 16 29.97" 0 0.00 346  
Dimmitt 2NE  08:45 AM 71 31 23% W1013 23 mph 238° @ 0355 AM 71 59 32 23 29.93" 0 0.00 347  
Dora NM 2SW  08:45 AM 73 12 10% NW1216 20 mph 262° @ 0345 AM 74 60 24 9 29.99" 0 0.00 281  
Floydada 2NNE  08:45 AM 74 29 19% W1519 19 mph 242° @ 0625 AM 74 59 38 18 29.90" 0 0.00 384  
Fluvanna 3WNW  08:45 AM 76 61 62% SW1215 15 mph 208° @ 0830 AM 76 66 70 15 29.89" 0 0.00 335  
Friona 2NE  08:45 AM 68 28 22% W1214 20 mph 249° @ 0440 AM 68 52 41 20 29.95" 0 0.00 373  
Gail 2ESE  08:45 AM 77 61 60% SW1318 18 mph 228° @ 0845 AM 77 66 77 19 29.88" 0 0.00 316  
Goodlett 3W  08:45 AM 76 45 34% SW1215 15 mph 231° @ 0840 AM 76 61 83 34 29.78" 0 0.00 368  
Graham 5SSW  08:40 AM 75 58 57% W1016 22 mph 245° @ 0440 AM 78 70 69 14 29.91" 0 0.00 311  
Guthrie 10WSW  08:45 AM 78 55 45% SW1520 20 mph 254° @ 0835 AM 78 64 53 28 29.82" 0 0.00 265  
Hart 3N  08:45 AM 68 33 27% W1215 18 mph 260° @ 0825 AM 71 52 56 23 29.93" 0 0.00 382  
Haskell 1NW  08:45 AM 80 66 67% SW1520 20 mph 177° @ 0105 AM 80 71 78 61 29.82" 0 0.00 391  
Hereford 2NW  08:45 AM 70 27 20% SW810 18 mph 243° @ 0315 AM 70 53 40 20 29.93" 0 0.00 373  
Hobbs NM 5NW  08:45 AM 81 23 12% W1520 22 mph 273° @ 0842 AM 81 69 20 12 30.00" 0 0.00 332  
Jayton 1SSE  08:45 AM 77 63 63% W914 15 mph 296° @ 0840 AM 77 67 70 23 29.85" 0 0.00 235  
Knox City 3NW  08:45 AM 81 65 59% SW1216 25 mph 169° @ 0120 AM 81 68 77 46 29.81" 0 0.00 367  
Lake Alan Henry 1NW  08:45 AM 79 61 54% NW1113 23 mph 230° @ 0342 AM 79 67 67 20 29.88" 0 0.00 360  
Lamesa 2SE  08:45 AM 75 57 53% W1113 17 mph 199° @ 0150 AM 75 60 88 22 29.93" 0 0.00 290  
Levelland 4S  08:45 AM 71 30 22% W810 19 mph 236° @ 0340 AM 72 59 32 18 29.95" 0 0.00 348  
Lubbock 3WNW TTU  08:45 AM 75 31 20% W912 22 mph 225° @ 0440 AM 78 66 30 16 29.93" 0 0.00 349  
Memphis 1NE  08:45 AM 70 52 54% SW35 9 mph 96° @ 1215 AM 74 55 93 54 29.79" 0 0.00 92  
Morton 1ENE  08:45 AM 72 25 17% W1113 23 mph 214° @ 1220 AM 76 62 29 14 29.95" 0 0.00 344  
Muleshoe 2SSW  08:45 AM 66 30 26% W1012 19 mph 216° @ 0200 AM 72 48 53 21 29.96" 0 0.00 373  
New Home  08:45 AM 74 37 26% W911 20 mph 336° @ 0729 AM 74 63 53 22 29.94" 0 0.00 383  
Northfield 1S  08:45 AM 77 42 28% SW811 19 mph 218° @ 0545 AM 77 56 84 28 29.82" 0 0.00 369  
O'Donnell 1N  08:45 AM 74 51 45% W1115 15 mph 252° @ 0845 AM 74 61 76 20 29.93" 0 0.00 268  
Odell 4ENE  08:45 AM 79 58 49% SW1215 20 mph 192° @ 0633 AM 79 71 92 48 29.77" 0 0.00 330  
Olton 6S  08:45 AM 68 34 29% W810 17 mph 239° @ 0330 AM 68 52 58 29 29.93" 0 0.00 361  
Paducah 10SW  08:45 AM 81 51 36% W1417 24 mph 233° @ 0710 AM 81 64 70 28 29.81" 0 0.00 311  
Palo Duro Canyon SP Floor  08:45 AM 74 33 22% N810 21 mph 268° @ 0336 AM 76 64 56 19 29.86" 0 0.00 377  
Palo Duro Canyon State Park Rim  08:45 AM 73 30 21% W1319 26 mph 273° @ 0619 AM 74 61 46 20 29.90" 0 0.00 91  
Plains 3N  08:45 AM 74 27 18% W811 17 mph 223° @ 0250 AM 75 58 34 16 29.97" 0 0.00 270  
Plainview 1S  08:45 AM 71 33 25% W912 21 mph 259° @ 0530 AM 75 58 42 19 29.91" 0 0.00 354  
Post 1NE  08:45 AM 77 56 49% W1523 23 mph 279° @ 0820 AM 81 71 59 13 29.88" 0 0.00 371  
Ralls 1SE  08:45 AM 75 34 22% W1115 19 mph 205° @ 0415 AM 75 63 52 22 29.92" 0 0.00 381  
Reese Center  08:45 AM 74 29 19% W1015 19 mph 310° @ 0645 AM 74 61 33 19 29.93" 0 0.00 379  
Roaring Springs 3N  08:45 AM 79 39 24% W1115 23 mph 231° @ 0510 AM 79 66 43 23 29.86" 0 0.00 303  
Seagraves 1SW  08:45 AM 72 40 31% W58 20 mph 200° @ 0325 AM 72 58 64 24 29.96" 0 0.00 288  
Seminole 2NNE  08:45 AM 73 40 31% W711 23 mph 203° @ 0355 AM 77 65 56 16 29.95" 0 0.00 341  
Seymour 3NW  08:45 AM 82 67 62% S1822 24 mph 196° @ 0835 AM 82 73 83 62 29.79" 0 0.00 371  
Silverton 7ESE  08:45 AM 70 33 25% W1417 21 mph 244° @ 0435 AM 71 59 51 25 29.89" 0 0.00 355  
Slaton 2NE  08:45 AM 76 31 20% W1215 25 mph 216° @ 0350 AM 76 67 53 17 29.92" 0 0.00 336  
Snyder 3E  08:45 AM 77 68 76% SW1015 16 mph 197° @ 0840 AM 77 66 92 29 29.89" 0 0.00 287  
Snyder 3SSW  08:45 AM 77 68 73% S1013 15 mph 202° @ 0836 AM 77 62 92 27 29.89" 0 0.00 174  
Spur 1W  08:45 AM 77 53 43% W812 23 mph 317° @ 0755 AM 77 60 50 32 29.85" 0 0.00 327  
Stamford 5ESE  08:45 AM 80 72 75% S1214 23 mph 171° @ 0104 AM 81 73 87 73 29.84" 0 0.00 373  
Sundown 8WSW  08:45 AM 74 33 22% W810 18 mph 223° @ 1205 AM 74 54 41 19 29.95" 0 0.00 283  
Tahoka 3NNE  08:45 AM 74 47 38% W810 21 mph 324° @ 0754 AM 74 61 64 20 29.93" 0 0.00 364  
Tatum NM 2SW  08:45 AM 75 24 15% W810 19 mph 252° @ 0530 AM 75 61 25 15 30.00" 0 0.00 313  
Throckmorton 1SW  08:45 AM 81 72 75% SW1316 21 mph 185° @ 0108 AM 81 74 87 75 29.83" 0 0.00 378  
Tulia 2ENE  08:40 AM 73 30 20% W1215 22 mph 254° @ 0435 AM 73 58 51 20 29.90" 0 0.00 336  
Turkey 2WSW  08:45 AM 79 34 20% SW1013 23 mph 250° @ 0635 AM 79 65 60 20 29.82" 0 0.00 346  
Umbarger 3NNE  08:45 AM 66 31 27% W1112 20 mph 250° @ 0537 AM 69 52 47 27 29.92" 0 0.00 439  
Vigo Park  08:45 AM 69 37 30% W1012 15 mph 254° @ 0731 AM 70 53 58 28 29.90" 0 0.00 379  
Weinert 2NNE  08:45 AM 82 69 65% SW1319 26 mph 194° @ 0306 AM 82 70 80 52 29.82" 0 0.00 365  
Welch  08:45 AM 76 48 37% W1112 16 mph 220° @ 0507 AM 76 64 76 21 29.95" 0 0.00 362  
White River Lake 6NW  08:45 AM 80 38 22% SW1013 24 mph 224° @ 0450 AM 80 70 52 16 29.88" 0 0.00 354  
Wolfforth 6SSW  08:45 AM 75 30 19% W812 25 mph 296° @ 0710 AM 75 61 44 19 29.93" 0 0.00 321  

West Texas Mesonet Home   Site Map/Menu  NWS Lubbock Soil Data  Daily Summary Page  24hr Precip  72hr Precip  Google Plot